• Join FlightAware (Why Join?)
  • Login
  • US Flag 
02:43AM EDT


 

Airport Tracker/Info


-or-


 

Live Flight TrackerFlight Track Log ✈ AWE3417 ✈ 15-Apr-2013 ✈ KDCA - KCMH

Flight Track Log - Related Links

Times and Time Zones

All times are in EDT time to prevent confusion due to time zone crossing. See the AWE3417 flight status page for this flight to view local times or setup timezone preferences in your user account.

Time Position Orientation Groundspeed Altitude Reporting Facility
EDT Latitude Longitude Course Direction KTS MPH feet Rate Location/Type
07:44PM 38.7833 -77.0333 274° West 184 212 3,100  Level Potomac TRACON
07:45PM 38.7500 -77.0833 229° Southwest 265 305 5,000 1,860 Climbing Potomac TRACON
07:46PM 38.9333 -77.5004 270° West  Level FlightAware Approximate
07:46PM 38.7500 -77.1833 270° West 282 325 6,900  Level Potomac TRACON
07:47PM 38.9333 -77.6257 270° West  Level FlightAware Approximate
07:47PM 38.7667 -77.2667 284° West 278 320 10,400  Level Potomac TRACON
07:48PM 38.9333 -77.7509 270° West  Level FlightAware Approximate
07:48PM 38.8333 -77.3500 316° Northwest 334 384 12,100  Level Potomac TRACON
07:49PM 38.9389 -77.8760 274° West  Level FlightAware Approximate
07:49PM 38.9000 -77.4167 322° Northwest 332 382 15,200  Level Potomac TRACON
07:51PM 38.9394 -77.6572 282° West 359 413 17,900 1,620 Climbing Washington Center
07:52PM 38.9458 -77.7722 274° West 359 413 20,200 2,100 Climbing Washington Center
07:53PM 38.9497 -77.9006 272° West 359 413 22,200 1,860 Climbing Washington Center
07:54PM 38.9533 -78.0342 272° West 367 422 24,000 1,800 Climbing Washington Center
07:55PM 38.9586 -78.1703 273° West 373 429 25,900 1,500 Climbing Washington Center
07:56PM 38.9619 -78.3067 272° West 383 441 27,000 540 Climbing Washington Center
07:57PM 38.9650 -78.4508 272° West 395 455 27,000  Level Washington Center
07:58PM 38.9697 -78.5928 272° West 401 461 27,000  Level Washington Center
07:59PM 38.9750 -78.7211 273° West 394 453 27,000  Level Washington Center
08:00PM 38.9778 -78.8492 272° West 376 433 27,000  Level Washington Center
08:01PM 38.9803 -78.9803 271° West 371 427 27,000  Level Washington Center
08:02PM 38.9831 -79.1086 272° West 366 421 27,000  Level Washington Center
08:03PM 38.9872 -79.2422 272° West 366 421 27,000  Level Washington Center
08:04PM 38.9892 -79.3786 271° West 373 429 27,000 240 Level Washington Center
08:05PM 38.9928 -79.5258 272° West 392 451 27,500 480 Climbing Washington Center
08:06PM 38.9997 -79.6997 273° West 429 494 28,000 240 Climbing Washington Center
08:07PM 39.0028 -79.8494 272° West 435 501 28,000  Level Washington Center
08:08PM 39.0056 -80.0047 271° West 435 501 28,000  Level Washington Center
08:09PM 39.0042 -80.1544 269° West 421 484 28,000  Level Indianapolis Center
08:10PM 39.0150 -80.3044 275° West 423 487 28,000  Level Indianapolis Center
08:11PM 39.0561 -80.4461 291° West 426 490 28,000  Level Indianapolis Center
08:12PM 39.0981 -80.5892 291° West 428 493 28,000  Level Indianapolis Center
08:13PM 39.1464 -80.7586 290° West 423 487 28,000  Level Indianapolis Center
08:14PM 39.1875 -80.8986 291° West 421 484 28,000  Level Indianapolis Center
08:15PM 39.2272 -81.0394 290° West 420 483 28,000  Level Indianapolis Center
08:16PM 39.2681 -81.1808 290° West 423 487 28,000 -1,020 Level Indianapolis Center
08:17PM 39.3075 -81.3217 290° West 420 483 26,000 -2,040 Descending Indianapolis Center
08:18PM 39.3453 -81.4558 290° West 404 465 23,900 -2,100 Descending Indianapolis Center
08:19PM 39.3825 -81.5878 290° West 394 453 21,800 -2,280 Descending Indianapolis Center
08:20PM 39.4253 -81.7414 290° West 381 438 19,300 -2,100 Descending Indianapolis Center
08:21PM 39.4589 -81.8661 289° West 371 427 17,500 -1,800 Descending Indianapolis Center
08:22PM 39.4731 -81.9244 287° West 364 419 16,600 -1,980 Descending Indianapolis Center
08:22PM 39.4917 -81.9864 291° West 358 412 15,500 -2,100 Descending Indianapolis Center
08:23PM 39.5092 -82.0522 289° West 354 407 14,500 -1,800 Descending Indianapolis Center
08:23PM 39.5250 -82.1067 291° West 355 409 13,700 -1,800 Descending Indianapolis Center
08:24PM 39.5397 -82.1686 287° West 344 396 12,700 -1,920 Descending Indianapolis Center
08:24PM 39.5556 -82.2225 291° West 342 394 11,800 -1,500 Descending Indianapolis Center
08:25PM 39.5725 -82.2828 290° West 338 389 11,200 -1,020 Descending Indianapolis Center
08:26PM 39.5878 -82.3356 291° West 334 384 10,800 -600 Descending Indianapolis Center
08:26PM 39.6014 -82.3886 288° West 313 360 10,600 -540 Descending Indianapolis Center
08:27PM 39.6392 -82.4139 333° Northwest 316 364 10,300 -660 Descending Indianapolis Center
08:27PM 39.6844 -82.4325 342° North 290 334 9,900 -1,080 Descending Indianapolis Center
08:28PM 39.7156 -82.4447 343° North 285 328 9,200 -1,800 Descending Indianapolis Center
08:28PM 39.7517 -82.4589 343° North 273 314 8,300 -2,040 Descending Indianapolis Center
08:29PM 39.8006 -82.4800 342° North 274 315 7,100 -1,860 Descending Indianapolis Center
08:29PM 39.8189 -82.4878 342° North 274 315 6,600 -2,100 Descending Indianapolis Center
08:30PM 39.8747 -82.5125 341° North 278 320 5,000 -2,040 Descending Indianapolis Center
08:30PM 39.8872 -82.5303 313° West 288 331 4,600 -1,260 Descending Indianapolis Center
08:31PM 39.9203 -82.5939 304° West 274 315 3,700 -1,080 Descending Indianapolis Center
08:32PM 39.9572 -82.6831 298° West 275 316 2,700 -1,020 Descending Indianapolis Center